sensor_id;sensor_type;location;lat;lon;timestamp;temperature;humidity
20526;DHT22;10421;49.142;9.232;2023-06-24T00:01:58;23.00;86.20
20526;DHT22;10421;49.142;9.232;2023-06-24T00:04:25;23.00;86.40
20526;DHT22;10421;49.142;9.232;2023-06-24T00:06:54;23.00;86.70
20526;DHT22;10421;49.142;9.232;2023-06-24T00:09:34;23.00;87.00
20526;DHT22;10421;49.142;9.232;2023-06-24T00:12:02;22.90;87.10
20526;DHT22;10421;49.142;9.232;2023-06-24T00:14:33;22.80;87.10
20526;DHT22;10421;49.142;9.232;2023-06-24T00:17:04;22.80;87.20
20526;DHT22;10421;49.142;9.232;2023-06-24T00:19:32;22.70;87.20
20526;DHT22;10421;49.142;9.232;2023-06-24T00:22:02;22.70;87.40
20526;DHT22;10421;49.142;9.232;2023-06-24T00:24:29;22.60;87.50
20526;DHT22;10421;49.142;9.232;2023-06-24T00:26:57;22.60;87.60
20526;DHT22;10421;49.142;9.232;2023-06-24T00:29:26;22.60;87.70
20526;DHT22;10421;49.142;9.232;2023-06-24T00:31:53;22.50;87.80
20526;DHT22;10421;49.142;9.232;2023-06-24T00:34:20;22.50;88.10
20526;DHT22;10421;49.142;9.232;2023-06-24T00:36:46;22.40;88.10
20526;DHT22;10421;49.142;9.232;2023-06-24T00:39:13;22.40;88.30
20526;DHT22;10421;49.142;9.232;2023-06-24T00:41:40;22.40;88.60
20526;DHT22;10421;49.142;9.232;2023-06-24T00:44:09;22.30;88.60
20526;DHT22;10421;49.142;9.232;2023-06-24T00:46:35;22.30;88.40
20526;DHT22;10421;49.142;9.232;2023-06-24T00:49:04;22.20;88.30
20526;DHT22;10421;49.142;9.232;2023-06-24T00:51:34;22.20;88.60
20526;DHT22;10421;49.142;9.232;2023-06-24T00:54:02;22.10;88.80
20526;DHT22;10421;49.142;9.232;2023-06-24T00:56:31;22.10;89.10
20526;DHT22;10421;49.142;9.232;2023-06-24T00:59:00;22.10;89.20
20526;DHT22;10421;49.142;9.232;2023-06-24T01:01:30;22.00;89.20
20526;DHT22;10421;49.142;9.232;2023-06-24T01:04:01;22.00;89.50
20526;DHT22;10421;49.142;9.232;2023-06-24T01:06:34;22.00;89.80
20526;DHT22;10421;49.142;9.232;2023-06-24T01:09:01;21.90;89.90
20526;DHT22;10421;49.142;9.232;2023-06-24T01:11:30;21.90;90.00
20526;DHT22;10421;49.142;9.232;2023-06-24T01:13:58;21.90;90.00
20526;DHT22;10421;49.142;9.232;2023-06-24T01:16:34;21.80;90.10
20526;DHT22;10421;49.142;9.232;2023-06-24T01:19:09;21.80;90.20
20526;DHT22;10421;49.142;9.232;2023-06-24T01:21:53;21.80;90.20
20526;DHT22;10421;49.142;9.232;2023-06-24T01:24:35;21.80;90.30
20526;DHT22;10421;49.142;9.232;2023-06-24T01:27:57;21.70;90.30
20526;DHT22;10421;49.142;9.232;2023-06-24T01:30:48;21.70;90.40
20526;DHT22;10421;49.142;9.232;2023-06-24T01:33:23;21.60;90.50
20526;DHT22;10421;49.142;9.232;2023-06-24T01:35:52;21.70;90.70
20526;DHT22;10421;49.142;9.232;2023-06-24T01:38:23;21.60;90.60
20526;DHT22;10421;49.142;9.232;2023-06-24T01:40:51;21.60;90.70
20526;DHT22;10421;49.142;9.232;2023-06-24T01:43:20;21.60;90.80
20526;DHT22;10421;49.142;9.232;2023-06-24T01:45:51;21.50;90.90
20526;DHT22;10421;49.142;9.232;2023-06-24T01:48:23;21.40;91.00
20526;DHT22;10421;49.142;9.232;2023-06-24T01:50:57;21.30;91.00
20526;DHT22;10421;49.142;9.232;2023-06-24T01:53:27;21.30;91.10
20526;DHT22;10421;49.142;9.232;2023-06-24T01:55:55;21.30;91.20
20526;DHT22;10421;49.142;9.232;2023-06-24T01:58:24;21.30;91.30
20526;DHT22;10421;49.142;9.232;2023-06-24T02:00:51;21.30;91.70
20526;DHT22;10421;49.142;9.232;2023-06-24T02:03:20;21.30;91.30
20526;DHT22;10421;49.142;9.232;2023-06-24T02:05:48;21.30;91.30
20526;DHT22;10421;49.142;9.232;2023-06-24T02:08:17;21.30;91.30
20526;DHT22;10421;49.142;9.232;2023-06-24T02:10:45;21.20;91.20
20526;DHT22;10421;49.142;9.232;2023-06-24T02:13:13;21.20;91.30
20526;DHT22;10421;49.142;9.232;2023-06-24T02:15:47;21.10;91.40
20526;DHT22;10421;49.142;9.232;2023-06-24T02:18:16;21.20;91.50
20526;DHT22;10421;49.142;9.232;2023-06-24T02:20:46;21.20;91.50
20526;DHT22;10421;49.142;9.232;2023-06-24T02:23:24;21.20;91.40
20526;DHT22;10421;49.142;9.232;2023-06-24T02:25:54;21.10;91.50
20526;DHT22;10421;49.142;9.232;2023-06-24T02:28:21;21.10;91.50
20526;DHT22;10421;49.142;9.232;2023-06-24T02:30:52;21.00;91.60
20526;DHT22;10421;49.142;9.232;2023-06-24T02:33:19;21.00;91.70
20526;DHT22;10421;49.142;9.232;2023-06-24T02:35:47;21.00;91.80
20526;DHT22;10421;49.142;9.232;2023-06-24T02:38:14;20.90;91.80
20526;DHT22;10421;49.142;9.232;2023-06-24T02:40:45;20.90;91.90
20526;DHT22;10421;49.142;9.232;2023-06-24T02:43:13;20.90;91.90
20526;DHT22;10421;49.142;9.232;2023-06-24T02:45:46;20.90;92.00
20526;DHT22;10421;49.142;9.232;2023-06-24T02:48:16;20.80;92.00
20526;DHT22;10421;49.142;9.232;2023-06-24T02:50:52;20.90;92.10
20526;DHT22;10421;49.142;9.232;2023-06-24T02:53:26;20.80;92.00
20526;DHT22;10421;49.142;9.232;2023-06-24T02:56:05;20.80;92.00
20526;DHT22;10421;49.142;9.232;2023-06-24T02:58:36;20.80;92.00
20526;DHT22;10421;49.142;9.232;2023-06-24T03:01:04;20.80;92.10
20526;DHT22;10421;49.142;9.232;2023-06-24T03:03:32;20.70;92.10
20526;DHT22;10421;49.142;9.232;2023-06-24T03:06:08;20.70;92.10
20526;DHT22;10421;49.142;9.232;2023-06-24T03:08:38;20.70;92.20
20526;DHT22;10421;49.142;9.232;2023-06-24T03:11:05;20.70;92.20
20526;DHT22;10421;49.142;9.232;2023-06-24T03:13:34;20.70;92.30
20526;DHT22;10421;49.142;9.232;2023-06-24T03:16:02;20.60;92.30
20526;DHT22;10421;49.142;9.232;2023-06-24T03:18:28;20.50;92.30
20526;DHT22;10421;49.142;9.232;2023-06-24T03:20:55;20.50;92.50
20526;DHT22;10421;49.142;9.232;2023-06-24T03:23:23;20.40;92.50
20526;DHT22;10421;49.142;9.232;2023-06-24T03:25:50;20.30;92.70
20526;DHT22;10421;49.142;9.232;2023-06-24T03:28:16;20.30;92.80
20526;DHT22;10421;49.142;9.232;2023-06-24T03:30:43;20.20;92.90
20526;DHT22;10421;49.142;9.232;2023-06-24T03:33:10;20.20;93.10
20526;DHT22;10421;49.142;9.232;2023-06-24T03:35:42;20.20;93.10
20526;DHT22;10421;49.142;9.232;2023-06-24T03:38:08;20.20;93.30
20526;DHT22;10421;49.142;9.232;2023-06-24T03:40:38;20.20;93.40
20526;DHT22;10421;49.142;9.232;2023-06-24T03:43:05;20.20;93.40
20526;DHT22;10421;49.142;9.232;2023-06-24T03:45:31;20.30;93.40
20526;DHT22;10421;49.142;9.232;2023-06-24T03:47:58;20.30;93.40
20526;DHT22;10421;49.142;9.232;2023-06-24T03:50:25;20.30;93.30
20526;DHT22;10421;49.142;9.232;2023-06-24T03:52:51;20.40;93.30
20526;DHT22;10421;49.142;9.232;2023-06-24T03:55:18;20.40;93.20
20526;DHT22;10421;49.142;9.232;2023-06-24T03:57:46;20.30;93.10
20526;DHT22;10421;49.142;9.232;2023-06-24T04:00:14;20.30;93.20
20526;DHT22;10421;49.142;9.232;2023-06-24T04:02:42;20.40;93.30
20526;DHT22;10421;49.142;9.232;2023-06-24T04:05:09;20.40;93.30
20526;DHT22;10421;49.142;9.232;2023-06-24T04:07:37;20.40;93.30
20526;DHT22;10421;49.142;9.232;2023-06-24T04:10:05;20.30;93.30
20526;DHT22;10421;49.142;9.232;2023-06-24T04:12:34;20.40;93.30
20526;DHT22;10421;49.142;9.232;2023-06-24T04:15:02;20.40;93.40
20526;DHT22;10421;49.142;9.232;2023-06-24T04:17:30;20.40;93.30
20526;DHT22;10421;49.142;9.232;2023-06-24T04:19:56;20.40;93.30
20526;DHT22;10421;49.142;9.232;2023-06-24T04:22:24;20.50;93.40
20526;DHT22;10421;49.142;9.232;2023-06-24T04:24:51;20.60;93.30
20526;DHT22;10421;49.142;9.232;2023-06-24T04:27:18;20.60;93.20
20526;DHT22;10421;49.142;9.232;2023-06-24T04:29:44;20.60;93.30
20526;DHT22;10421;49.142;9.232;2023-06-24T04:32:15;20.60;93.30
20526;DHT22;10421;49.142;9.232;2023-06-24T04:34:42;20.60;93.30
20526;DHT22;10421;49.142;9.232;2023-06-24T04:37:09;20.60;93.30
20526;DHT22;10421;49.142;9.232;2023-06-24T04:39:35;20.60;93.30
20526;DHT22;10421;49.142;9.232;2023-06-24T04:42:03;20.60;93.30
20526;DHT22;10421;49.142;9.232;2023-06-24T04:44:30;20.70;93.40
20526;DHT22;10421;49.142;9.232;2023-06-24T04:46:56;20.70;93.40
20526;DHT22;10421;49.142;9.232;2023-06-24T04:49:25;20.70;93.40
20526;DHT22;10421;49.142;9.232;2023-06-24T04:51:52;20.80;93.50
20526;DHT22;10421;49.142;9.232;2023-06-24T04:54:18;20.80;93.40
20526;DHT22;10421;49.142;9.232;2023-06-24T04:56:46;20.90;93.40
20526;DHT22;10421;49.142;9.232;2023-06-24T04:59:15;20.90;93.30
20526;DHT22;10421;49.142;9.232;2023-06-24T05:01:41;21.00;93.40
20526;DHT22;10421;49.142;9.232;2023-06-24T05:04:08;21.00;93.30
20526;DHT22;10421;49.142;9.232;2023-06-24T05:06:36;21.10;93.30
20526;DHT22;10421;49.142;9.232;2023-06-24T05:09:03;21.20;93.30
20526;DHT22;10421;49.142;9.232;2023-06-24T05:11:30;21.20;93.30
20526;DHT22;10421;49.142;9.232;2023-06-24T05:13:57;21.30;93.20
20526;DHT22;10421;49.142;9.232;2023-06-24T05:16:24;21.30;93.10
20526;DHT22;10421;49.142;9.232;2023-06-24T05:18:50;21.40;93.10
20526;DHT22;10421;49.142;9.232;2023-06-24T05:21:17;21.40;93.00
20526;DHT22;10421;49.142;9.232;2023-06-24T05:23:45;21.50;93.00
20526;DHT22;10421;49.142;9.232;2023-06-24T05:26:13;21.60;93.00
20526;DHT22;10421;49.142;9.232;2023-06-24T05:28:40;21.60;93.00
20526;DHT22;10421;49.142;9.232;2023-06-24T05:31:06;21.70;93.00
20526;DHT22;10421;49.142;9.232;2023-06-24T05:33:33;21.70;92.90
20526;DHT22;10421;49.142;9.232;2023-06-24T05:36:00;21.90;92.90
20526;DHT22;10421;49.142;9.232;2023-06-24T05:38:27;21.90;92.90
20526;DHT22;10421;49.142;9.232;2023-06-24T05:40:55;22.00;92.90
20526;DHT22;10421;49.142;9.232;2023-06-24T05:43:21;22.00;92.90
20526;DHT22;10421;49.142;9.232;2023-06-24T05:45:48;22.10;92.80
20526;DHT22;10421;49.142;9.232;2023-06-24T05:48:15;22.20;92.80
20526;DHT22;10421;49.142;9.232;2023-06-24T05:50:42;22.20;92.70
20526;DHT22;10421;49.142;9.232;2023-06-24T05:53:08;22.30;92.70
20526;DHT22;10421;49.142;9.232;2023-06-24T05:55:35;22.30;92.60
20526;DHT22;10421;49.142;9.232;2023-06-24T05:58:03;22.40;92.40
20526;DHT22;10421;49.142;9.232;2023-06-24T06:00:30;22.50;92.40
20526;DHT22;10421;49.142;9.232;2023-06-24T06:02:57;22.50;92.30
20526;DHT22;10421;49.142;9.232;2023-06-24T06:05:23;22.60;92.20
20526;DHT22;10421;49.142;9.232;2023-06-24T06:07:50;22.60;92.10
20526;DHT22;10421;49.142;9.232;2023-06-24T06:10:18;22.70;92.00
20526;DHT22;10421;49.142;9.232;2023-06-24T06:12:45;22.70;91.70
20526;DHT22;10421;49.142;9.232;2023-06-24T06:15:13;22.80;91.50
20526;DHT22;10421;49.142;9.232;2023-06-24T06:17:40;22.80;91.50
20526;DHT22;10421;49.142;9.232;2023-06-24T06:20:08;22.90;91.40
20526;DHT22;10421;49.142;9.232;2023-06-24T06:22:34;23.00;91.20
20526;DHT22;10421;49.142;9.232;2023-06-24T06:25:04;23.10;91.20
20526;DHT22;10421;49.142;9.232;2023-06-24T06:27:31;23.10;91.00
20526;DHT22;10421;49.142;9.232;2023-06-24T06:29:57;23.20;90.80
20526;DHT22;10421;49.142;9.232;2023-06-24T06:32:25;23.10;89.40
20526;DHT22;10421;49.142;9.232;2023-06-24T06:34:52;23.00;88.80
20526;DHT22;10421;49.142;9.232;2023-06-24T06:37:19;23.00;88.40
20526;DHT22;10421;49.142;9.232;2023-06-24T06:39:46;22.80;88.20
20526;DHT22;10421;49.142;9.232;2023-06-24T06:42:12;22.80;88.50
20526;DHT22;10421;49.142;9.232;2023-06-24T06:44:40;22.80;88.70
20526;DHT22;10421;49.142;9.232;2023-06-24T06:47:07;22.90;88.90
20526;DHT22;10421;49.142;9.232;2023-06-24T06:49:35;22.90;88.60
20526;DHT22;10421;49.142;9.232;2023-06-24T06:52:02;22.90;88.60
20526;DHT22;10421;49.142;9.232;2023-06-24T06:54:28;22.90;87.60
20526;DHT22;10421;49.142;9.232;2023-06-24T06:56:59;22.90;87.80
20526;DHT22;10421;49.142;9.232;2023-06-24T06:59:26;22.80;88.10
20526;DHT22;10421;49.142;9.232;2023-06-24T07:01:53;22.90;88.80
20526;DHT22;10421;49.142;9.232;2023-06-24T07:04:19;22.80;88.40
20526;DHT22;10421;49.142;9.232;2023-06-24T07:06:48;22.90;88.10
20526;DHT22;10421;49.142;9.232;2023-06-24T07:09:14;22.90;87.50
20526;DHT22;10421;49.142;9.232;2023-06-24T07:11:41;23.00;87.80
20526;DHT22;10421;49.142;9.232;2023-06-24T07:14:08;23.10;88.00
20526;DHT22;10421;49.142;9.232;2023-06-24T07:16:36;23.20;87.70
20526;DHT22;10421;49.142;9.232;2023-06-24T07:19:02;23.30;87.10
20526;DHT22;10421;49.142;9.232;2023-06-24T07:21:29;23.30;87.50
20526;DHT22;10421;49.142;9.232;2023-06-24T07:23:57;23.40;87.70
20526;DHT22;10421;49.142;9.232;2023-06-24T07:26:24;23.50;87.20
20526;DHT22;10421;49.142;9.232;2023-06-24T07:28:56;23.50;87.40
20526;DHT22;10421;49.142;9.232;2023-06-24T07:31:22;23.60;87.30
20526;DHT22;10421;49.142;9.232;2023-06-24T07:33:49;23.60;87.50
20526;DHT22;10421;49.142;9.232;2023-06-24T07:36:16;23.70;86.90
20526;DHT22;10421;49.142;9.232;2023-06-24T07:38:43;23.80;86.80
20526;DHT22;10421;49.142;9.232;2023-06-24T07:41:11;23.80;86.90
20526;DHT22;10421;49.142;9.232;2023-06-24T07:43:38;23.90;86.70
20526;DHT22;10421;49.142;9.232;2023-06-24T07:46:05;24.00;86.40
20526;DHT22;10421;49.142;9.232;2023-06-24T07:48:31;24.10;86.60
20526;DHT22;10421;49.142;9.232;2023-06-24T07:50:58;24.30;86.30
20526;DHT22;10421;49.142;9.232;2023-06-24T07:53:25;24.30;86.10
20526;DHT22;10421;49.142;9.232;2023-06-24T07:55:52;24.40;85.60
20526;DHT22;10421;49.142;9.232;2023-06-24T07:58:20;24.50;85.30
20526;DHT22;10421;49.142;9.232;2023-06-24T08:00:47;24.60;84.80
20526;DHT22;10421;49.142;9.232;2023-06-24T08:03:13;24.70;84.60
20526;DHT22;10421;49.142;9.232;2023-06-24T08:05:40;24.70;84.10
20526;DHT22;10421;49.142;9.232;2023-06-24T08:08:08;24.80;84.00
20526;DHT22;10421;49.142;9.232;2023-06-24T08:10:34;25.00;84.20
20526;DHT22;10421;49.142;9.232;2023-06-24T08:13:01;25.20;84.00
20526;DHT22;10421;49.142;9.232;2023-06-24T08:15:29;25.40;83.40
20526;DHT22;10421;49.142;9.232;2023-06-24T08:17:56;25.50;81.90
20526;DHT22;10421;49.142;9.232;2023-06-24T08:20:23;25.60;81.10
20526;DHT22;10421;49.142;9.232;2023-06-24T08:22:50;25.60;79.80
20526;DHT22;10421;49.142;9.232;2023-06-24T08:25:17;25.70;79.60
20526;DHT22;10421;49.142;9.232;2023-06-24T08:27:45;25.80;79.20
20526;DHT22;10421;49.142;9.232;2023-06-24T08:30:13;25.90;78.80
20526;DHT22;10421;49.142;9.232;2023-06-24T08:32:41;26.10;78.20
20526;DHT22;10421;49.142;9.232;2023-06-24T08:35:08;26.20;77.70
20526;DHT22;10421;49.142;9.232;2023-06-24T08:37:36;26.40;77.60
20526;DHT22;10421;49.142;9.232;2023-06-24T08:40:04;26.60;76.70
20526;DHT22;10421;49.142;9.232;2023-06-24T08:42:31;26.70;76.10
20526;DHT22;10421;49.142;9.232;2023-06-24T08:44:57;26.80;75.60
20526;DHT22;10421;49.142;9.232;2023-06-24T08:47:25;26.90;75.30
20526;DHT22;10421;49.142;9.232;2023-06-24T08:50:00;27.00;75.50
20526;DHT22;10421;49.142;9.232;2023-06-24T08:52:32;27.20;74.80
20526;DHT22;10421;49.142;9.232;2023-06-24T08:55:01;27.40;73.90
20526;DHT22;10421;49.142;9.232;2023-06-24T08:57:28;27.50;72.60
20526;DHT22;10421;49.142;9.232;2023-06-24T08:59:55;27.60;71.80
20526;DHT22;10421;49.142;9.232;2023-06-24T09:02:22;27.70;71.60
20526;DHT22;10421;49.142;9.232;2023-06-24T09:04:50;27.70;69.90
20526;DHT22;10421;49.142;9.232;2023-06-24T09:07:26;27.90;68.20
20526;DHT22;10421;49.142;9.232;2023-06-24T09:09:53;28.00;67.10
20526;DHT22;10421;49.142;9.232;2023-06-24T09:12:20;28.20;67.00
20526;DHT22;10421;49.142;9.232;2023-06-24T09:14:48;28.30;65.90
20526;DHT22;10421;49.142;9.232;2023-06-24T09:17:15;28.40;65.60
20526;DHT22;10421;49.142;9.232;2023-06-24T09:19:42;28.30;64.20
20526;DHT22;10421;49.142;9.232;2023-06-24T09:22:10;28.40;64.80
20526;DHT22;10421;49.142;9.232;2023-06-24T09:24:44;28.40;64.50
20526;DHT22;10421;49.142;9.232;2023-06-24T09:27:12;28.40;63.50
20526;DHT22;10421;49.142;9.232;2023-06-24T09:29:40;28.40;63.30
20526;DHT22;10421;49.142;9.232;2023-06-24T09:32:08;28.30;63.70
20526;DHT22;10421;49.142;9.232;2023-06-24T09:34:35;28.30;64.40
20526;DHT22;10421;49.142;9.232;2023-06-24T09:37:02;28.40;64.00
20526;DHT22;10421;49.142;9.232;2023-06-24T09:39:35;28.40;63.20
20526;DHT22;10421;49.142;9.232;2023-06-24T09:42:05;28.40;61.50
20526;DHT22;10421;49.142;9.232;2023-06-24T09:44:33;28.40;62.20
20526;DHT22;10421;49.142;9.232;2023-06-24T09:47:00;28.40;62.70
20526;DHT22;10421;49.142;9.232;2023-06-24T09:49:27;28.40;62.50
20526;DHT22;10421;49.142;9.232;2023-06-24T09:51:56;28.40;61.80
20526;DHT22;10421;49.142;9.232;2023-06-24T09:54:25;28.60;60.70
20526;DHT22;10421;49.142;9.232;2023-06-24T09:56:54;28.80;59.90
20526;DHT22;10421;49.142;9.232;2023-06-24T09:59:23;28.80;56.60
20526;DHT22;10421;49.142;9.232;2023-06-24T10:01:53;28.80;56.50
20526;DHT22;10421;49.142;9.232;2023-06-24T10:04:20;28.90;57.40
20526;DHT22;10421;49.142;9.232;2023-06-24T10:06:48;29.00;58.00
20526;DHT22;10421;49.142;9.232;2023-06-24T10:09:16;29.10;58.60
20526;DHT22;10421;49.142;9.232;2023-06-24T10:11:45;29.30;58.10
20526;DHT22;10421;49.142;9.232;2023-06-24T10:14:12;29.40;57.50
20526;DHT22;10421;49.142;9.232;2023-06-24T10:16:40;29.40;55.60
20526;DHT22;10421;49.142;9.232;2023-06-24T10:19:07;29.50;55.70
20526;DHT22;10421;49.142;9.232;2023-06-24T10:21:49;29.60;56.00
20526;DHT22;10421;49.142;9.232;2023-06-24T10:24:28;29.70;56.00
20526;DHT22;10421;49.142;9.232;2023-06-24T10:26:59;29.80;56.50
20526;DHT22;10421;49.142;9.232;2023-06-24T10:29:36;29.90;56.40
20526;DHT22;10421;49.142;9.232;2023-06-24T10:32:06;30.10;56.50
20526;DHT22;10421;49.142;9.232;2023-06-24T10:34:34;30.20;54.00
20526;DHT22;10421;49.142;9.232;2023-06-24T10:37:08;30.40;53.20
20526;DHT22;10421;49.142;9.232;2023-06-24T10:42:36;30.70;51.90
20526;DHT22;10421;49.142;9.232;2023-06-24T10:45:14;30.80;52.40
20526;DHT22;10421;49.142;9.232;2023-06-24T10:47:44;31.00;52.80
20526;DHT22;10421;49.142;9.232;2023-06-24T10:50:12;31.10;52.10
20526;DHT22;10421;49.142;9.232;2023-06-24T10:52:41;31.30;52.00
20526;DHT22;10421;49.142;9.232;2023-06-24T10:55:08;31.40;50.70
20526;DHT22;10421;49.142;9.232;2023-06-24T10:57:35;31.50;50.60
20526;DHT22;10421;49.142;9.232;2023-06-24T11:00:04;31.50;50.10
20526;DHT22;10421;49.142;9.232;2023-06-24T11:02:31;31.50;50.30
20526;DHT22;10421;49.142;9.232;2023-06-24T11:05:00;31.70;50.20
20526;DHT22;10421;49.142;9.232;2023-06-24T11:07:28;31.70;50.20
20526;DHT22;10421;49.142;9.232;2023-06-24T11:09:58;31.80;49.80
20526;DHT22;10421;49.142;9.232;2023-06-24T11:12:25;31.80;49.00
20526;DHT22;10421;49.142;9.232;2023-06-24T11:14:55;31.90;48.10
20526;DHT22;10421;49.142;9.232;2023-06-24T11:17:23;32.00;47.90
20526;DHT22;10421;49.142;9.232;2023-06-24T11:19:51;32.10;48.70
20526;DHT22;10421;49.142;9.232;2023-06-24T11:22:19;32.20;47.80
20526;DHT22;10421;49.142;9.232;2023-06-24T11:24:46;32.20;46.50
20526;DHT22;10421;49.142;9.232;2023-06-24T11:27:13;32.20;46.50
20526;DHT22;10421;49.142;9.232;2023-06-24T11:29:40;32.30;46.00
20526;DHT22;10421;49.142;9.232;2023-06-24T11:32:08;32.40;45.50
20526;DHT22;10421;49.142;9.232;2023-06-24T11:34:35;32.40;44.80
20526;DHT22;10421;49.142;9.232;2023-06-24T11:37:10;32.40;44.40
20526;DHT22;10421;49.142;9.232;2023-06-24T11:39:38;32.50;44.10
20526;DHT22;10421;49.142;9.232;2023-06-24T11:42:06;32.60;43.90
20526;DHT22;10421;49.142;9.232;2023-06-24T11:44:34;32.60;43.70
20526;DHT22;10421;49.142;9.232;2023-06-24T11:47:05;32.70;43.90
20526;DHT22;10421;49.142;9.232;2023-06-24T11:49:32;32.90;43.60
20526;DHT22;10421;49.142;9.232;2023-06-24T11:52:13;32.90;43.20
20526;DHT22;10421;49.142;9.232;2023-06-24T11:54:42;33.00;43.00
20526;DHT22;10421;49.142;9.232;2023-06-24T11:57:09;33.00;43.40
20526;DHT22;10421;49.142;9.232;2023-06-24T11:59:37;33.10;43.40
20526;DHT22;10421;49.142;9.232;2023-06-24T12:02:04;33.20;43.50
20526;DHT22;10421;49.142;9.232;2023-06-24T12:04:31;33.20;43.20
20526;DHT22;10421;49.142;9.232;2023-06-24T12:06:59;33.20;43.00
20526;DHT22;10421;49.142;9.232;2023-06-24T12:09:26;33.40;43.00
20526;DHT22;10421;49.142;9.232;2023-06-24T12:11:54;33.30;42.20
20526;DHT22;10421;49.142;9.232;2023-06-24T12:14:21;33.40;41.60
20526;DHT22;10421;49.142;9.232;2023-06-24T12:16:48;33.40;40.60
20526;DHT22;10421;49.142;9.232;2023-06-24T12:19:14;33.40;40.90
20526;DHT22;10421;49.142;9.232;2023-06-24T12:21:41;33.30;41.30
20526;DHT22;10421;49.142;9.232;2023-06-24T12:24:08;33.40;41.40
20526;DHT22;10421;49.142;9.232;2023-06-24T12:26:35;33.40;42.10
20526;DHT22;10421;49.142;9.232;2023-06-24T12:29:04;33.40;42.30
20526;DHT22;10421;49.142;9.232;2023-06-24T12:31:31;33.40;42.50
20526;DHT22;10421;49.142;9.232;2023-06-24T12:33:57;33.60;41.90
20526;DHT22;10421;49.142;9.232;2023-06-24T12:36:24;33.60;42.00
20526;DHT22;10421;49.142;9.232;2023-06-24T12:38:51;33.70;41.70
20526;DHT22;10421;49.142;9.232;2023-06-24T12:41:18;33.80;41.70
20526;DHT22;10421;49.142;9.232;2023-06-24T12:43:44;33.80;42.20
20526;DHT22;10421;49.142;9.232;2023-06-24T12:46:13;33.80;41.40
20526;DHT22;10421;49.142;9.232;2023-06-24T12:48:39;33.90;41.50
20526;DHT22;10421;49.142;9.232;2023-06-24T12:51:06;33.90;40.40
20526;DHT22;10421;49.142;9.232;2023-06-24T12:53:33;33.90;40.70
20526;DHT22;10421;49.142;9.232;2023-06-24T12:56:00;33.90;40.30
20526;DHT22;10421;49.142;9.232;2023-06-24T12:58:26;33.90;40.30
20526;DHT22;10421;49.142;9.232;2023-06-24T13:00:53;33.90;40.30
20526;DHT22;10421;49.142;9.232;2023-06-24T13:03:21;33.80;39.80
20526;DHT22;10421;49.142;9.232;2023-06-24T13:05:48;33.80;39.80
20526;DHT22;10421;49.142;9.232;2023-06-24T13:08:14;33.70;39.80
20526;DHT22;10421;49.142;9.232;2023-06-24T13:10:41;33.70;39.60
20526;DHT22;10421;49.142;9.232;2023-06-24T13:13:08;33.80;39.00
20526;DHT22;10421;49.142;9.232;2023-06-24T13:15:35;33.80;37.90
20526;DHT22;10421;49.142;9.232;2023-06-24T13:18:03;33.90;37.30
20526;DHT22;10421;49.142;9.232;2023-06-24T13:20:31;33.80;37.00
20526;DHT22;10421;49.142;9.232;2023-06-24T13:22:58;33.90;37.20
20526;DHT22;10421;49.142;9.232;2023-06-24T13:25:25;33.90;37.00
20526;DHT22;10421;49.142;9.232;2023-06-24T13:27:52;33.90;36.20
20526;DHT22;10421;49.142;9.232;2023-06-24T13:30:18;34.00;36.30
20526;DHT22;10421;49.142;9.232;2023-06-24T13:32:45;34.00;36.30
20526;DHT22;10421;49.142;9.232;2023-06-24T13:35:12;34.10;36.80
20526;DHT22;10421;49.142;9.232;2023-06-24T13:37:40;34.10;36.90
20526;DHT22;10421;49.142;9.232;2023-06-24T13:40:09;34.20;37.00
20526;DHT22;10421;49.142;9.232;2023-06-24T13:42:36;34.10;36.50
20526;DHT22;10421;49.142;9.232;2023-06-24T13:45:03;34.10;36.30
20526;DHT22;10421;49.142;9.232;2023-06-24T13:47:30;33.90;36.70
20526;DHT22;10421;49.142;9.232;2023-06-24T13:49:57;33.90;36.10
20526;DHT22;10421;49.142;9.232;2023-06-24T13:52:24;33.90;35.20
20526;DHT22;10421;49.142;9.232;2023-06-24T13:54:52;33.90;34.50
20526;DHT22;10421;49.142;9.232;2023-06-24T13:57:19;34.00;34.80
20526;DHT22;10421;49.142;9.232;2023-06-24T13:59:46;33.90;35.90
20526;DHT22;10421;49.142;9.232;2023-06-24T14:02:12;34.00;36.30
20526;DHT22;10421;49.142;9.232;2023-06-24T14:04:39;33.90;36.60
20526;DHT22;10421;49.142;9.232;2023-06-24T14:07:06;34.00;36.90
20526;DHT22;10421;49.142;9.232;2023-06-24T14:09:33;34.10;37.30
20526;DHT22;10421;49.142;9.232;2023-06-24T14:12:01;34.10;37.30
20526;DHT22;10421;49.142;9.232;2023-06-24T14:14:28;34.10;37.20
20526;DHT22;10421;49.142;9.232;2023-06-24T14:16:55;34.10;37.20
20526;DHT22;10421;49.142;9.232;2023-06-24T14:19:22;34.10;36.70
20526;DHT22;10421;49.142;9.232;2023-06-24T14:21:49;34.00;37.00
20526;DHT22;10421;49.142;9.232;2023-06-24T14:24:16;34.00;36.80
20526;DHT22;10421;49.142;9.232;2023-06-24T14:26:43;34.00;37.10
20526;DHT22;10421;49.142;9.232;2023-06-24T14:29:11;34.00;38.00
20526;DHT22;10421;49.142;9.232;2023-06-24T14:31:38;33.90;36.50
20526;DHT22;10421;49.142;9.232;2023-06-24T14:34:05;33.80;36.30
20526;DHT22;10421;49.142;9.232;2023-06-24T14:36:31;33.80;36.40
20526;DHT22;10421;49.142;9.232;2023-06-24T14:38:58;33.60;36.60
20526;DHT22;10421;49.142;9.232;2023-06-24T14:41:25;33.60;37.60
20526;DHT22;10421;49.142;9.232;2023-06-24T14:43:52;33.60;37.60
20526;DHT22;10421;49.142;9.232;2023-06-24T14:46:22;33.60;37.80
20526;DHT22;10421;49.142;9.232;2023-06-24T14:48:49;33.60;37.90
20526;DHT22;10421;49.142;9.232;2023-06-24T14:51:16;33.60;38.20
20526;DHT22;10421;49.142;9.232;2023-06-24T14:53:45;33.50;37.70
20526;DHT22;10421;49.142;9.232;2023-06-24T14:56:12;33.40;37.90
20526;DHT22;10421;49.142;9.232;2023-06-24T14:58:41;33.40;38.40
20526;DHT22;10421;49.142;9.232;2023-06-24T15:01:08;33.50;38.40
20526;DHT22;10421;49.142;9.232;2023-06-24T15:03:36;33.50;38.10
20526;DHT22;10421;49.142;9.232;2023-06-24T15:06:03;33.60;38.50
20526;DHT22;10421;49.142;9.232;2023-06-24T15:08:30;33.70;38.30
20526;DHT22;10421;49.142;9.232;2023-06-24T15:10:56;33.70;38.10
20526;DHT22;10421;49.142;9.232;2023-06-24T15:13:23;33.60;38.00
20526;DHT22;10421;49.142;9.232;2023-06-24T15:15:50;33.50;37.50
20526;DHT22;10421;49.142;9.232;2023-06-24T15:18:17;33.40;37.40
20526;DHT22;10421;49.142;9.232;2023-06-24T15:20:45;33.40;37.60
20526;DHT22;10421;49.142;9.232;2023-06-24T15:23:12;33.30;37.90
20526;DHT22;10421;49.142;9.232;2023-06-24T15:25:39;33.40;37.90
20526;DHT22;10421;49.142;9.232;2023-06-24T15:28:06;33.40;38.40
20526;DHT22;10421;49.142;9.232;2023-06-24T15:30:32;33.40;38.30
20526;DHT22;10421;49.142;9.232;2023-06-24T15:32:59;33.40;38.00
20526;DHT22;10421;49.142;9.232;2023-06-24T15:35:26;33.40;37.60
20526;DHT22;10421;49.142;9.232;2023-06-24T15:37:54;33.40;38.00
20526;DHT22;10421;49.142;9.232;2023-06-24T15:40:21;33.40;38.30